Time;durP1;ratioP1;P1;durP2;ratioP2;P2;SDS_P1;SDS_P2;PMS_P1;PMS_P2;Temp;Humidity;BMP_temperature;BMP_pressure;BME280_temperature;BME280_humidity;BME280_pressure;Samples;Min_cycle;Max_cycle;Signal;HPM_P1;HPM_P2
2023/01/29 00:01:06;;;;;;;40.75;19.58;;;-3.30;99.90;;;;;;4960081;28;20041;-78
2023/01/29 00:03:32;;;;;;;51.90;24.02;;;-3.10;99.90;;;;;;4993503;28;20046;-78
2023/01/29 00:05:58;;;;;;;52.80;23.98;;;-3.10;99.90;;;;;;4976926;28;20026;-78
2023/01/29 00:08:24;;;;;;;54.53;25.60;;;-3.30;99.90;;;;;;4976281;28;20038;-78
2023/01/29 00:10:50;;;;;;;54.20;26.27;;;-3.40;99.90;;;;;;4958399;28;20045;-78
2023/01/29 00:13:16;;;;;;;57.33;27.75;;;-3.40;99.90;;;;;;4962896;28;20112;-78
2023/01/29 00:15:41;;;;;;;58.10;26.80;;;-3.40;99.90;;;;;;4989871;28;20035;-78
2023/01/29 00:18:07;;;;;;;42.65;19.50;;;-3.50;99.90;;;;;;4959643;28;20513;-78
2023/01/29 00:20:33;;;;;;;53.63;24.77;;;-3.40;99.90;;;;;;4976267;28;20030;-79
2023/01/29 00:22:58;;;;;;;43.25;20.73;;;-3.30;99.90;;;;;;4979242;28;20381;-78
2023/01/29 00:25:24;;;;;;;58.70;28.42;;;-3.30;99.90;;;;;;4961280;28;20051;-78
2023/01/29 00:27:50;;;;;;;51.55;23.90;;;-3.50;99.90;;;;;;4974812;28;20362;-78
2023/01/29 00:30:17;;;;;;;45.63;22.58;;;-3.30;99.90;;;;;;4990813;28;20038;-78
2023/01/29 00:32:44;;;;;;;63.38;28.63;;;-3.20;99.90;;;;;;4991377;28;20120;-78
2023/01/29 00:35:09;;;;;;;64.57;28.70;;;-3.20;99.90;;;;;;4979126;28;20030;-78
2023/01/29 00:37:37;;;;;;;66.57;30.30;;;-3.30;99.90;;;;;;4980739;28;20033;-78
2023/01/29 00:40:03;;;;;;;58.15;28.08;;;-3.40;99.90;;;;;;4979783;28;20120;-78
2023/01/29 00:45:13;;;;;;;51.03;23.77;;;-3.40;99.90;;;;;;4984433;28;20509;-78
2023/01/29 00:47:38;;;;;;;58.15;27.25;;;-3.40;99.90;;;;;;4993825;28;20078;-83
2023/01/29 00:50:08;;;;;;;62.80;28.10;;;-3.40;99.90;;;;;;4982115;28;20037;-78
2023/01/29 00:52:35;;;;;;;67.05;28.30;;;-3.40;99.90;;;;;;4959860;28;20042;-78
2023/01/29 00:55:01;;;;;;;67.50;31.48;;;-3.70;99.90;;;;;;4978600;28;20037;-78
2023/01/29 00:57:27;;;;;;;53.80;24.48;;;-3.90;99.90;;;;;;4997535;28;20037;-78
2023/01/29 00:59:53;;;;;;;59.53;26.63;;;-3.80;99.90;;;;;;4974343;28;20124;-78
2023/01/29 01:05:06;;;;;;;62.90;27.73;;;-3.70;99.90;;;;;;4980610;28;20092;-78
2023/01/29 01:07:32;;;;;;;58.35;26.60;;;-3.60;99.90;;;;;;4963717;28;20436;-79
2023/01/29 01:12:47;;;;;;;55.22;25.45;;;-3.60;99.90;;;;;;4974316;28;20390;-80
2023/01/29 01:15:13;;;;;;;53.05;24.10;;;-3.70;99.90;;;;;;4977977;28;20064;-79
2023/01/29 01:17:38;;;;;;;55.28;26.88;;;-3.60;99.90;;;;;;4995724;28;20468;-79
2023/01/29 01:20:04;;;;;;;49.03;23.27;;;-3.70;99.90;;;;;;4996205;28;20498;-79
2023/01/29 01:22:30;;;;;;;46.10;19.60;;;-3.60;99.90;;;;;;4978867;28;20042;-79
2023/01/29 01:24:56;;;;;;;48.55;21.73;;;-3.60;99.90;;;;;;4992944;28;20034;-79
2023/01/29 01:27:22;;;;;;;56.55;24.63;;;-3.50;99.90;;;;;;4979468;28;20033;-78
2023/01/29 01:29:47;;;;;;;42.05;19.30;;;-3.60;99.90;;;;;;4981678;28;20040;-78
2023/01/29 01:32:13;;;;;;;42.28;19.92;;;-3.50;99.90;;;;;;4970699;28;20504;-78
2023/01/29 01:34:38;;;;;;;46.17;21.45;;;-3.30;99.90;;;;;;4974511;28;20042;-79
2023/01/29 01:37:04;;;;;;;42.63;18.83;;;-3.20;99.90;;;;;;4963521;28;20485;-79
2023/01/29 01:39:29;;;;;;;62.05;28.30;;;-3.30;99.90;;;;;;4979577;28;20072;-79
2023/01/29 01:41:55;;;;;;;59.13;26.10;;;-3.40;99.90;;;;;;4980301;28;20022;-79
2023/01/29 01:44:53;;;;;;;53.72;24.23;;;-3.60;99.90;;;;;;4977897;28;20038;-79
2023/01/29 01:47:21;;;;;;;58.20;24.77;;;-3.70;99.90;;;;;;4991717;28;20076;-79
2023/01/29 01:49:46;;;;;;;50.42;23.48;;;-3.60;99.90;;;;;;4959808;28;20583;-78
2023/01/29 01:52:12;;;;;;;57.83;26.20;;;-3.70;99.90;;;;;;4978730;28;20029;-79
2023/01/29 01:54:38;;;;;;;54.83;26.75;;;-3.80;99.90;;;;;;4976994;28;20152;-79
2023/01/29 01:57:14;;;;;;;60.45;25.67;;;-3.80;99.90;;;;;;4993875;28;20037;-79
2023/01/29 01:59:46;;;;;;;47.47;21.00;;;-3.90;99.90;;;;;;4979336;28;20087;-79
2023/01/29 02:10:37;;;;;;;65.05;27.95;;;-3.90;99.90;;;;;;5081985;28;20035;-81
2023/01/29 02:13:06;;;;;;;64.80;29.30;;;-3.90;99.90;;;;;;5091235;28;20044;-81
2023/01/29 02:15:32;;;;;;;55.92;24.02;;;-4.20;99.90;;;;;;5050943;27;20028;-80
2023/01/29 02:17:58;;;;;;;53.90;24.02;;;-4.20;99.90;;;;;;5102547;28;20062;-81
2023/01/29 02:20:28;;;;;;;74.50;31.90;;;-4.00;99.90;;;;;;5070844;28;20426;-81
2023/01/29 02:22:57;;;;;;;69.43;30.95;;;-4.00;99.90;;;;;;5085513;28;20392;-81
2023/01/29 02:25:29;;;;;;;63.90;29.95;;;-4.20;99.90;;;;;;5090008;28;20048;-81
2023/01/29 02:28:11;;;;;;;60.28;27.48;;;-3.90;99.90;;;;;;5111776;27;20037;-81
2023/01/29 02:30:45;;;;;;;74.10;32.30;;;-3.70;99.90;;;;;;5065929;28;20060;-81
2023/01/29 02:33:21;;;;;;;57.92;25.90;;;-4.00;99.90;;;;;;5064443;28;20438;-80
2023/01/29 02:36:03;;;;;;;75.25;32.95;;;-4.10;99.90;;;;;;5104853;28;20108;-81
2023/01/29 02:38:30;;;;;;;68.45;28.58;;;-4.20;99.90;;;;;;5083607;27;20483;-81
2023/01/29 02:41:11;;;;;;;41.70;19.23;;;-4.10;99.90;;;;;;5065946;28;20092;-81
2023/01/29 02:43:37;;;;;;;71.55;30.05;;;-3.90;99.90;;;;;;5068209;28;20048;-81
2023/01/29 02:46:09;;;;;;;57.50;26.10;;;-3.70;99.90;;;;;;5101912;27;20464;-80
2023/01/29 02:48:51;;;;;;;47.55;21.13;;;-3.80;99.90;;;;;;5077496;27;20038;-81
2023/01/29 02:51:19;;;;;;;57.88;25.00;;;-3.70;99.90;;;;;;5078651;27;20035;-80
2023/01/29 02:53:49;;;;;;;49.03;20.48;;;-4.00;99.90;;;;;;5064532;28;20527;-80
2023/01/29 02:56:20;;;;;;;64.15;27.65;;;-3.90;99.90;;;;;;5078305;28;20060;-81
2023/01/29 02:58:52;;;;;;;58.55;25.65;;;-4.00;99.90;;;;;;5066505;27;20036;-80
2023/01/29 03:01:29;;;;;;;68.75;28.73;;;-4.00;99.90;;;;;;5063531;28;20028;-78
2023/01/29 03:03:56;;;;;;;55.42;23.98;;;-3.90;99.90;;;;;;5099945;28;20063;-78
2023/01/29 03:06:33;;;;;;;48.30;22.05;;;-4.10;99.90;;;;;;5076277;28;20036;-77
2023/01/29 03:09:00;;;;;;;48.65;21.25;;;-3.90;99.90;;;;;;5065990;28;20031;-77
2023/01/29 03:11:29;;;;;;;60.83;26.73;;;-3.90;99.90;;;;;;5078689;28;20047;-78
2023/01/29 03:14:03;;;;;;;64.22;27.23;;;-3.90;99.90;;;;;;5065042;28;20495;-77
2023/01/29 03:16:38;;;;;;;58.25;25.63;;;-3.90;99.90;;;;;;5063196;28;20032;-77
2023/01/29 03:19:13;;;;;;;51.20;21.83;;;-4.00;99.90;;;;;;5055821;28;20028;-77
2023/01/29 03:21:53;;;;;;;39.42;16.92;;;-3.70;99.90;;;;;;5079000;27;20056;-78
2023/01/29 03:32:39;;;;;;;45.13;19.23;;;-3.70;99.90;;;;;;5064151;28;20438;-81
2023/01/29 03:35:05;;;;;;;41.30;18.20;;;-3.60;99.90;;;;;;5063547;28;20033;-80
2023/01/29 03:37:42;;;;;;;53.25;23.27;;;-3.60;99.90;;;;;;5064820;28;20064;-77
2023/01/29 03:40:08;;;;;;;50.50;20.23;;;-3.50;99.90;;;;;;5070633;28;20032;-78
2023/01/29 03:42:50;;;;;;;53.47;22.63;;;-3.50;99.90;;;;;;5088281;28;20534;-78
2023/01/29 03:45:33;;;;;;;67.45;29.00;;;-3.40;99.90;;;;;;5062663;28;20035;-77
2023/01/29 03:48:36;;;;;;;65.05;24.17;;;-3.50;99.90;;;;;;5038915;28;20462;-77
2023/01/29 03:51:14;;;;;;;56.10;25.35;;;-3.60;99.90;;;;;;5092947;27;20518;-78
2023/01/29 03:53:53;;;;;;;53.25;22.27;;;-3.60;99.90;;;;;;5066876;28;20030;-78
2023/01/29 03:56:23;;;;;;;63.05;27.50;;;-3.50;99.90;;;;;;5071716;28;20024;-77
2023/01/29 03:59:00;;;;;;;54.20;23.13;;;-3.50;99.90;;;;;;5073265;28;20067;-78
2023/01/29 04:01:34;;;;;;;53.65;21.95;;;-3.50;99.90;;;;;;5064417;28;20531;-78
2023/01/29 04:04:06;;;;;;;55.53;25.15;;;-3.40;99.90;;;;;;5078678;28;20518;-78
2023/01/29 04:06:33;;;;;;;65.20;27.27;;;-3.40;99.90;;;;;;5048330;28;20032;-78
2023/01/29 04:09:21;;;;;;;63.28;28.20;;;-3.50;99.90;;;;;;5051612;28;20044;-77
2023/01/29 04:11:48;;;;;;;68.88;28.38;;;-3.70;99.90;;;;;;5078389;28;20032;-78
2023/01/29 04:14:14;;;;;;;69.43;30.17;;;-3.80;99.90;;;;;;5059206;28;20032;-78
2023/01/29 04:16:40;;;;;;;66.05;29.23;;;-3.90;99.90;;;;;;5058526;28;20039;-77
2023/01/29 04:19:06;;;;;;;61.38;24.92;;;-4.00;99.90;;;;;;5057264;28;20484;-78
2023/01/29 04:21:32;;;;;;;71.22;28.98;;;-4.00;99.90;;;;;;5064592;28;20292;-77
2023/01/29 04:23:58;;;;;;;50.45;22.33;;;-4.00;99.90;;;;;;5077695;28;20051;-78
2023/01/29 04:26:26;;;;;;;73.18;28.73;;;-3.90;99.90;;;;;;5047216;28;20032;-78
2023/01/29 04:29:10;;;;;;;66.90;27.83;;;-3.90;99.90;;;;;;5077373;28;20150;-78
2023/01/29 04:31:57;;;;;;;61.25;25.05;;;-3.70;99.90;;;;;;5079714;28;20466;-78
2023/01/29 04:34:33;;;;;;;53.72;23.00;;;-3.60;99.90;;;;;;5056160;28;20588;-78
2023/01/29 04:37:02;;;;;;;;;;;-3.50;99.90;;;;;;5065997;28;20131;-78
2023/01/29 04:39:33;;;;;;;63.63;24.45;;;-3.40;99.90;;;;;;5077076;28;19911;-78
2023/01/29 04:42:08;;;;;;;56.55;24.40;;;-3.40;99.90;;;;;;5058555;28;20755;-78
2023/01/29 04:44:39;;;;;;;62.25;25.33;;;-3.30;99.90;;;;;;5067223;28;20110;-78
2023/01/29 04:47:25;;;;;;;51.88;22.38;;;-3.20;99.90;;;;;;5053055;28;20062;-78
2023/01/29 04:50:03;;;;;;;;;;;-3.30;99.90;;;;;;5065727;28;20050;-78
2023/01/29 04:52:34;;;;;;;57.40;24.33;;;-3.20;99.90;;;;;;5083418;28;20279;-77
2023/01/29 04:55:24;;;;;;;61.35;24.35;;;-3.30;99.90;;;;;;5073882;28;20028;-78
2023/01/29 04:57:56;;;;;;;54.00;22.58;;;-3.20;99.90;;;;;;5068328;28;20032;-77
2023/01/29 05:00:39;;;;;;;52.85;22.17;;;-3.20;99.90;;;;;;5086220;28;20043;-78
2023/01/29 05:03:05;;;;;;;44.78;20.85;;;-3.20;99.90;;;;;;5068640;28;20515;-78
2023/01/29 05:05:30;;;;;;;51.75;21.02;;;-3.00;99.90;;;;;;5087537;28;20023;-78
2023/01/29 05:07:56;;;;;;;41.35;17.33;;;-2.90;99.90;;;;;;5057734;28;20036;-78
2023/01/29 05:10:21;;;;;;;56.30;23.42;;;-2.90;99.90;;;;;;5069453;28;20028;-78
2023/01/29 05:12:50;;;;;;;52.03;23.88;;;-2.90;99.90;;;;;;5057877;28;20034;-77
2023/01/29 05:15:19;;;;;;;64.50;26.35;;;-3.00;99.90;;;;;;5054277;28;20027;-78
2023/01/29 05:17:44;;;;;;;61.75;26.10;;;-3.00;99.90;;;;;;5072601;28;20560;-78
2023/01/29 05:20:10;;;;;;;55.83;23.13;;;-3.00;99.90;;;;;;5066627;28;20103;-78
2023/01/29 05:22:37;;;;;;;67.22;28.42;;;-3.00;99.90;;;;;;5070579;28;20043;-78
2023/01/29 05:25:02;;;;;;;52.85;21.38;;;-2.90;99.90;;;;;;5063302;27;20490;-78
2023/01/29 05:30:17;;;;;;;59.97;24.90;;;-2.70;99.90;;;;;;5081288;28;20038;-78
2023/01/29 05:32:42;;;;;;;57.28;24.52;;;-2.70;99.90;;;;;;5071793;28;20395;-77
2023/01/29 05:35:09;;;;;;;63.97;25.25;;;-2.60;99.90;;;;;;5051370;28;20036;-76
2023/01/29 05:37:36;;;;;;;60.53;27.35;;;-2.70;99.90;;;;;;5050239;28;20036;-77
2023/01/29 05:40:02;;;;;;;47.42;19.60;;;-2.60;99.90;;;;;;5060183;28;20499;-78
2023/01/29 05:42:27;;;;;;;59.63;24.00;;;-2.50;99.90;;;;;;5067455;28;20024;-78
2023/01/29 05:44:53;;;;;;;50.33;22.55;;;-2.50;99.90;;;;;;5070244;27;20493;-77
2023/01/29 05:47:19;;;;;;;65.00;25.48;;;-2.50;99.90;;;;;;5050869;28;20481;-78
2023/01/29 05:49:45;;;;;;;52.30;22.88;;;-2.50;99.90;;;;;;5052513;28;20058;-78
2023/01/29 05:52:10;;;;;;;51.83;21.50;;;-2.40;99.90;;;;;;5060009;28;20024;-77
2023/01/29 05:54:36;;;;;;;60.40;26.35;;;-2.40;99.90;;;;;;5083845;28;20549;-78
2023/01/29 05:57:04;;;;;;;44.33;18.40;;;-2.30;99.90;;;;;;5058078;28;20110;-78
2023/01/29 05:59:30;;;;;;;46.25;20.83;;;-2.30;99.90;;;;;;5047822;28;20377;-78
2023/01/29 06:01:56;;;;;;;49.17;21.65;;;-2.30;99.90;;;;;;5046199;28;20028;-78
2023/01/29 06:04:21;;;;;;;56.90;24.60;;;-2.30;99.90;;;;;;5026282;28;20518;-78
2023/01/29 06:06:47;;;;;;;57.45;24.38;;;-2.20;99.90;;;;;;5056915;28;20040;-78
2023/01/29 06:09:14;;;;;;;25.95;11.55;;;-2.20;99.90;;;;;;5060405;28;20036;-78
2023/01/29 06:11:40;;;;;;;49.30;21.75;;;-2.30;99.90;;;;;;5079618;27;20081;-78
2023/01/29 06:14:05;;;;;;;44.83;21.40;;;-2.20;99.90;;;;;;5044538;28;20480;-78
2023/01/29 06:16:31;;;;;;;60.17;26.83;;;-2.10;99.90;;;;;;5042318;28;20035;-78
2023/01/29 06:18:56;;;;;;;62.22;26.50;;;-2.10;99.90;;;;;;5058909;28;20032;-78
2023/01/29 06:21:22;;;;;;;64.78;27.13;;;-2.10;99.90;;;;;;5076613;28;20068;-78
2023/01/29 06:23:48;;;;;;;46.50;19.55;;;-2.10;99.90;;;;;;5078907;28;20067;-78
2023/01/29 06:26:14;;;;;;;47.63;19.65;;;-2.10;99.90;;;;;;5075960;28;20043;-78
2023/01/29 06:28:39;;;;;;;58.28;23.52;;;-2.00;99.90;;;;;;5055736;28;20077;-78
2023/01/29 06:31:05;;;;;;;59.20;24.98;;;-1.90;99.90;;;;;;5054538;28;20119;-79
2023/01/29 06:33:31;;;;;;;48.88;21.80;;;-2.10;99.90;;;;;;5083973;27;20044;-78
2023/01/29 06:36:00;;;;;;;58.40;24.77;;;-2.10;99.90;;;;;;5072381;27;20047;-78
2023/01/29 06:38:26;;;;;;;44.08;20.02;;;-2.00;99.90;;;;;;5075472;28;20110;-78
2023/01/29 06:40:55;;;;;;;65.88;26.63;;;-2.00;99.90;;;;;;5074373;28;20072;-78
2023/01/29 06:43:22;;;;;;;43.72;19.55;;;-1.80;99.90;;;;;;5091352;28;20036;-78
2023/01/29 06:45:55;;;;;;;45.58;21.42;;;-1.90;99.90;;;;;;5059440;28;20036;-79
2023/01/29 06:48:20;;;;;;;56.83;24.08;;;-1.80;99.90;;;;;;5076832;28;20028;-78
2023/01/29 06:50:46;;;;;;;62.92;26.35;;;-1.80;99.90;;;;;;5062426;28;20470;-78
2023/01/29 06:53:12;;;;;;;65.65;27.15;;;-1.80;99.90;;;;;;5057384;28;20724;-78
2023/01/29 06:55:38;;;;;;;55.83;22.55;;;-1.80;99.90;;;;;;5056358;28;20075;-78
2023/01/29 06:58:07;;;;;;;69.60;28.25;;;-1.80;99.90;;;;;;5066448;28;20063;-79
2023/01/29 07:00:36;;;;;;;51.85;21.23;;;-1.80;99.90;;;;;;5053618;28;20535;-78
2023/01/29 07:03:02;;;;;;;54.78;21.90;;;-1.70;99.90;;;;;;5080706;28;20135;-79
2023/01/29 07:05:27;;;;;;;50.47;21.02;;;-1.70;99.90;;;;;;5044710;28;20139;-79
2023/01/29 07:07:53;;;;;;;54.28;22.00;;;-1.70;99.90;;;;;;5077506;28;20028;-78
2023/01/29 07:10:19;;;;;;;52.00;19.48;;;-1.70;99.90;;;;;;5073611;28;20026;-78
2023/01/29 07:12:45;;;;;;;29.40;11.32;;;-1.60;99.90;;;;;;5059386;28;20028;-78
2023/01/29 07:15:18;;;;;;;61.13;25.20;;;-1.60;99.90;;;;;;5091181;28;20399;-79
2023/01/29 07:17:43;;;;;;;49.22;20.17;;;-1.70;99.90;;;;;;5064089;28;20024;-78
2023/01/29 07:20:17;;;;;;;69.47;27.50;;;-1.70;99.90;;;;;;5057517;28;20029;-79
2023/01/29 07:22:42;;;;;;;59.20;23.40;;;-1.70;99.90;;;;;;5073716;28;20059;-78
2023/01/29 07:25:09;;;;;;;63.40;27.27;;;-1.70;99.90;;;;;;5062151;28;20025;-78
2023/01/29 07:27:35;;;;;;;45.10;19.30;;;-1.70;99.90;;;;;;5074872;28;20508;-78
2023/01/29 07:30:01;;;;;;;63.58;23.88;;;-1.70;99.90;;;;;;5058793;28;20062;-78
2023/01/29 07:32:27;;;;;;;78.00;31.70;;;-1.60;99.90;;;;;;5047026;28;20043;-78
2023/01/29 07:34:53;;;;;;;65.35;26.70;;;-1.70;99.90;;;;;;5058303;28;20039;-78
2023/01/29 07:37:19;;;;;;;76.82;32.15;;;-1.60;99.90;;;;;;5038040;28;20644;-78
2023/01/29 07:39:46;;;;;;;54.75;21.52;;;-1.50;99.90;;;;;;5066177;28;20115;-78
2023/01/29 07:42:12;;;;;;;56.47;24.25;;;-1.50;99.90;;;;;;5056682;28;20441;-78
2023/01/29 07:44:37;;;;;;;56.15;22.45;;;-1.40;99.90;;;;;;5065178;28;20032;-78
2023/01/29 07:47:04;;;;;;;64.07;27.17;;;-1.40;99.90;;;;;;5062966;28;20037;-78
2023/01/29 07:49:33;;;;;;;69.38;28.15;;;-1.40;99.90;;;;;;5049983;28;20032;-78
2023/01/29 07:51:58;;;;;;;56.80;22.27;;;-1.40;99.90;;;;;;5068916;28;20059;-78
2023/01/29 07:54:24;;;;;;;68.20;29.73;;;-1.40;99.90;;;;;;5059553;28;20389;-78
2023/01/29 07:56:50;;;;;;;52.50;21.55;;;-1.30;99.90;;;;;;5074522;28;20450;-78
2023/01/29 07:59:16;;;;;;;63.85;26.20;;;-1.30;99.90;;;;;;5045638;28;20048;-78
2023/01/29 08:01:42;;;;;;;63.55;28.67;;;-1.20;99.90;;;;;;5059956;28;20028;-78
2023/01/29 08:04:07;;;;;;;63.92;27.02;;;-1.20;99.90;;;;;;5042304;28;20067;-79
2023/01/29 08:06:33;;;;;;;57.30;24.88;;;-1.20;99.90;;;;;;5073656;28;20032;-79
2023/01/29 08:08:58;;;;;;;64.95;26.33;;;-1.20;99.90;;;;;;5048360;28;20047;-79
2023/01/29 08:11:24;;;;;;;68.63;27.77;;;-1.10;99.90;;;;;;5054454;28;20044;-78
2023/01/29 08:13:49;;;;;;;76.97;32.33;;;-1.10;99.90;;;;;;5044249;28;20461;-78
2023/01/29 08:16:15;;;;;;;68.95;28.05;;;-1.10;99.90;;;;;;5038879;28;20071;-79
2023/01/29 08:18:46;;;;;;;64.57;26.13;;;-1.10;99.90;;;;;;5064519;28;20032;-79
2023/01/29 08:21:12;;;;;;;52.05;23.08;;;-1.10;99.90;;;;;;5081299;28;20062;-79
2023/01/29 08:23:37;;;;;;;64.75;26.95;;;-1.00;99.90;;;;;;5085058;28;20040;-79
2023/01/29 08:26:03;;;;;;;61.20;27.25;;;-1.00;99.90;;;;;;5056424;28;20040;-78
2023/01/29 08:28:31;;;;;;;74.03;31.88;;;-1.10;99.90;;;;;;5065162;28;20506;-79
2023/01/29 08:30:57;;;;;;;70.15;30.25;;;-1.10;99.90;;;;;;5040833;28;20090;-77
2023/01/29 08:33:23;;;;;;;56.42;23.95;;;-1.00;99.90;;;;;;5065159;28;20032;-77
2023/01/29 08:35:50;;;;;;;49.22;20.55;;;-1.00;99.90;;;;;;5052170;28;20392;-77
2023/01/29 08:38:16;;;;;;;64.18;26.48;;;-0.90;99.90;;;;;;5047220;28;20125;-77
2023/01/29 08:40:41;;;;;;;47.22;18.38;;;-0.80;99.90;;;;;;5060790;28;20091;-77
2023/01/29 08:43:07;;;;;;;42.28;17.50;;;-0.90;99.90;;;;;;5054241;28;20050;-77
2023/01/29 08:45:33;;;;;;;72.22;31.13;;;-0.90;99.90;;;;;;5069537;28;21218;-77
2023/01/29 08:47:59;;;;;;;58.90;24.80;;;-0.80;99.90;;;;;;5084417;28;20024;-77
2023/01/29 08:50:24;;;;;;;55.03;23.85;;;-0.80;99.90;;;;;;5062183;28;20563;-77
2023/01/29 08:52:50;;;;;;;57.33;22.38;;;-0.80;99.90;;;;;;5074360;28;20493;-77
2023/01/29 08:55:16;;;;;;;60.40;26.38;;;-0.70;99.90;;;;;;5069023;28;20036;-77
2023/01/29 08:57:41;;;;;;;60.78;26.35;;;-0.70;99.90;;;;;;5050004;28;20028;-77
2023/01/29 09:00:11;;;;;;;47.58;20.80;;;-0.70;99.90;;;;;;5062701;28;20060;-77
2023/01/29 09:02:36;;;;;;;30.30;11.73;;;-0.70;99.90;;;;;;5066948;28;20032;-76
2023/01/29 09:05:02;;;;;;;55.10;23.92;;;-0.70;99.90;;;;;;5037316;28;20024;-77
2023/01/29 09:07:28;;;;;;;63.70;24.50;;;-0.70;99.90;;;;;;5059254;28;20081;-76
2023/01/29 09:09:54;;;;;;;56.60;24.45;;;-0.70;99.90;;;;;;5044700;28;20117;-77
2023/01/29 09:12:19;;;;;;;39.25;17.77;;;-0.70;99.90;;;;;;5081357;28;20032;-77
2023/01/29 09:14:45;;;;;;;62.92;25.42;;;-0.70;99.90;;;;;;5082300;27;20114;-77
2023/01/29 09:17:10;;;;;;;60.97;24.77;;;-0.60;99.90;;;;;;5059108;28;20397;-77
2023/01/29 09:19:36;;;;;;;61.67;24.30;;;-0.60;99.90;;;;;;5061701;28;20519;-77
2023/01/29 09:22:01;;;;;;;30.70;14.20;;;-0.60;99.90;;;;;;5066133;28;20028;-77
2023/01/29 09:24:27;;;;;;;67.95;26.73;;;-0.50;99.90;;;;;;5055623;27;20435;-78
2023/01/29 09:26:53;;;;;;;57.28;24.13;;;-0.50;99.90;;;;;;5032037;28;20127;-77
2023/01/29 09:29:18;;;;;;;36.47;13.98;;;-0.50;99.90;;;;;;5050652;28;20089;-77
2023/01/29 09:31:44;;;;;;;58.58;24.27;;;-0.50;99.90;;;;;;5072407;28;20082;-77
2023/01/29 09:34:09;;;;;;;62.15;25.20;;;-0.40;99.90;;;;;;5080667;28;20417;-79
2023/01/29 09:36:35;;;;;;;61.10;25.15;;;-0.40;99.90;;;;;;5078586;28;20488;-79
2023/01/29 09:39:00;;;;;;;66.95;28.60;;;-0.30;99.90;;;;;;5056277;28;20051;-78
2023/01/29 09:41:53;;;;;;;37.80;15.70;;;-0.30;99.90;;;;;;5074538;28;20031;-79
2023/01/29 09:44:37;;;;;;;36.67;15.02;;;-0.20;99.90;;;;;;5070842;28;20329;-79
2023/01/29 09:47:04;;;;;;;56.40;23.08;;;-0.20;99.90;;;;;;5077568;28;20083;-79
2023/01/29 09:49:33;;;;;;;38.28;18.13;;;-0.20;99.90;;;;;;5040653;28;20377;-79
2023/01/29 09:52:01;;;;;;;53.20;23.95;;;-0.20;99.90;;;;;;5063888;28;20744;-79
2023/01/29 09:54:33;;;;;;;41.40;16.95;;;-0.20;99.90;;;;;;5067013;28;20488;-79
2023/01/29 09:56:59;;;;;;;44.90;17.17;;;-0.20;99.90;;;;;;5050278;28;20039;-79
2023/01/29 09:59:26;;;;;;;43.00;15.43;;;-0.10;99.90;;;;;;5065897;28;20028;-78
2023/01/29 10:02:08;;;;;;;37.75;16.02;;;-0.10;99.90;;;;;;5054527;28;20044;-79
2023/01/29 10:04:56;;;;;;;37.20;17.23;;;-0.10;99.90;;;;;;5054810;28;20170;-79
2023/01/29 10:08:00;;;;;;;45.97;16.73;;;-0.10;99.90;;;;;;5066650;28;20029;-79
2023/01/29 10:10:33;;;;;;;44.58;16.98;;;0.00;99.90;;;;;;5052434;28;20032;-79
2023/01/29 10:13:14;;;;;;;38.83;15.35;;;0.00;99.90;;;;;;5065593;28;20511;-79
2023/01/29 10:16:11;;;;;;;42.58;18.73;;;0.00;99.90;;;;;;5079590;28;20036;-78
2023/01/29 10:18:52;;;;;;;32.83;13.02;;;0.00;99.90;;;;;;5079952;28;20059;-79
2023/01/29 10:21:51;;;;;;;45.15;18.00;;;0.00;99.90;;;;;;5069110;28;20016;-79
2023/01/29 10:24:40;;;;;;;40.78;18.38;;;0.10;99.90;;;;;;5079465;28;20039;-79
2023/01/29 10:27:16;;;;;;;47.22;19.60;;;0.10;99.90;;;;;;5061128;28;20165;-79
2023/01/29 10:29:42;;;;;;;36.95;17.30;;;0.20;99.90;;;;;;5073451;28;20043;-79
2023/01/29 10:32:17;;;;;;;53.17;24.63;;;0.20;99.90;;;;;;5036310;28;20028;-79
2023/01/29 10:35:05;;;;;;;42.80;17.98;;;0.30;99.90;;;;;;5062786;28;20078;-79
2023/01/29 10:37:39;;;;;;;45.00;18.75;;;0.30;99.90;;;;;;5071424;28;20127;-79
2023/01/29 10:40:22;;;;;;;40.88;16.83;;;0.30;99.90;;;;;;5065159;28;20028;-79
2023/01/29 10:42:57;;;;;;;42.97;19.25;;;0.40;99.90;;;;;;5046862;28;20037;-80
2023/01/29 10:45:32;;;;;;;35.58;16.65;;;0.40;99.90;;;;;;5042532;28;20576;-78
2023/01/29 10:48:22;;;;;;;23.20;12.75;;;0.40;99.90;;;;;;5077287;28;20032;-78
2023/01/29 10:50:51;;;;;;;33.83;14.73;;;0.50;99.90;;;;;;5059812;28;20028;-79
2023/01/29 10:53:31;;;;;;;29.65;11.70;;;0.60;99.90;;;;;;5060432;28;20047;-79
2023/01/29 10:56:23;;;;;;;39.95;17.10;;;0.60;99.90;;;;;;5080164;27;20032;-79
2023/01/29 10:58:58;;;;;;;54.97;23.17;;;0.70;99.90;;;;;;5076770;28;20031;-79
2023/01/29 11:01:25;;;;;;;60.38;23.77;;;0.70;99.90;;;;;;5051809;28;20039;-79
2023/01/29 11:04:01;;;;;;;43.95;19.45;;;0.80;99.90;;;;;;5063310;28;20185;-79
2023/01/29 11:06:31;;;;;;;39.28;18.17;;;0.90;99.90;;;;;;5065607;28;20040;-79
2023/01/29 11:09:10;;;;;;;41.72;19.00;;;0.80;99.90;;;;;;5079834;28;20033;-79
2023/01/29 11:11:45;;;;;;;42.40;14.82;;;0.90;99.90;;;;;;5067155;28;20036;-79
2023/01/29 11:14:18;;;;;;;32.10;13.75;;;1.00;99.90;;;;;;5059081;28;20031;-79
2023/01/29 11:16:45;;;;;;;42.63;20.10;;;1.00;99.90;;;;;;5057339;28;20601;-79
2023/01/29 11:19:11;;;;;;;26.63;14.13;;;0.90;99.90;;;;;;5065024;28;20372;-79
2023/01/29 11:21:58;;;;;;;38.67;17.27;;;1.00;99.90;;;;;;5062356;28;20098;-79
2023/01/29 11:24:24;;;;;;;51.22;23.67;;;1.00;99.90;;;;;;5058491;28;20411;-79
2023/01/29 11:26:51;;;;;;;33.95;13.55;;;1.00;99.90;;;;;;5065104;28;20040;-79
2023/01/29 11:29:36;;;;;;;45.38;19.23;;;1.10;99.90;;;;;;5065792;28;20521;-80
2023/01/29 11:32:04;;;;;;;42.28;17.25;;;1.10;99.90;;;;;;5078736;28;20111;-81
2023/01/29 11:34:30;;;;;;;33.38;15.60;;;1.10;99.90;;;;;;5059031;28;20079;-78
2023/01/29 11:37:02;;;;;;;32.05;14.15;;;1.10;99.90;;;;;;5057455;28;20480;-81
2023/01/29 11:39:28;;;;;;;38.90;14.43;;;1.20;99.90;;;;;;5048107;28;20024;-80
2023/01/29 11:41:55;;;;;;;56.80;22.67;;;1.20;99.90;;;;;;5063471;28;20025;-79
2023/01/29 11:44:32;;;;;;;45.20;18.92;;;1.30;99.90;;;;;;5060457;28;20075;-80
2023/01/29 11:47:11;;;;;;;33.35;14.65;;;1.20;99.90;;;;;;5051688;28;20033;-80
2023/01/29 11:49:37;;;;;;;34.65;14.60;;;1.20;99.90;;;;;;5050967;28;20019;-79
2023/01/29 11:52:05;;;;;;;26.08;11.52;;;1.20;99.90;;;;;;5049932;28;20492;-79
2023/01/29 11:54:33;;;;;;;30.27;13.25;;;1.20;99.90;;;;;;5051092;28;20364;-80
2023/01/29 11:56:59;;;;;;;37.55;14.43;;;1.20;99.90;;;;;;5049001;28;20059;-79
2023/01/29 11:59:33;;;;;;;38.78;16.38;;;1.30;99.90;;;;;;5043022;28;20056;-79
2023/01/29 12:02:17;;;;;;;27.13;14.85;;;1.30;99.90;;;;;;5080062;28;20119;-78
2023/01/29 12:04:43;;;;;;;43.40;17.38;;;1.20;99.90;;;;;;5083052;28;20577;-79
2023/01/29 12:07:15;;;;;;;41.28;15.90;;;1.20;99.90;;;;;;5041545;28;20029;-79
2023/01/29 12:09:41;;;;;;;57.67;25.42;;;1.20;99.90;;;;;;5059789;28;20033;-79
2023/01/29 12:12:26;;;;;;;39.22;16.02;;;1.30;99.90;;;;;;5055483;28;20661;-79
2023/01/29 12:15:15;;;;;;;29.80;14.63;;;1.30;99.90;;;;;;5070759;28;20031;-79
2023/01/29 12:17:42;;;;;;;30.02;11.43;;;1.20;99.90;;;;;;5069818;28;20052;-79
2023/01/29 12:20:14;;;;;;;27.30;11.10;;;1.30;99.90;;;;;;4357277;28;10000392;-79
2023/01/29 12:22:52;;;;;;;35.95;18.33;;;1.30;99.90;;;;;;5064414;28;20031;-79
2023/01/29 12:25:41;;;;;;;22.45;10.65;;;1.30;99.90;;;;;;5070655;28;20398;-80
2023/01/29 12:28:19;;;;;;;47.70;21.05;;;1.30;99.90;;;;;;5081317;28;20089;-80
2023/01/29 12:31:20;;;;;;;30.17;14.20;;;1.40;99.90;;;;;;5082363;27;20036;-80
2023/01/29 12:33:59;;;;;;;48.92;20.63;;;1.40;99.90;;;;;;5069855;28;20114;-79
2023/01/29 12:36:35;;;;;;;45.15;21.02;;;1.40;99.90;;;;;;5069629;28;20056;-79
2023/01/29 12:39:00;;;;;;;33.42;15.00;;;1.40;99.90;;;;;;5051138;28;20040;-80
2023/01/29 12:41:31;;;;;;;28.42;13.32;;;1.40;99.90;;;;;;5072488;28;20702;-80
2023/01/29 12:44:30;;;;;;;37.03;16.70;;;1.40;99.90;;;;;;5061361;28;20146;-80
2023/01/29 12:46:57;;;;;;;20.73;10.02;;;1.40;99.90;;;;;;5080319;28;20036;-80
2023/01/29 12:49:26;;;;;;;34.80;16.20;;;1.40;99.90;;;;;;5046582;28;20479;-80
2023/01/29 12:52:06;;;;;;;33.38;15.88;;;1.50;99.90;;;;;;5067459;28;20043;-80
2023/01/29 12:54:37;;;;;;;25.05;13.07;;;1.50;99.90;;;;;;5084823;28;20041;-79
2023/01/29 12:57:06;;;;;;;30.13;13.70;;;1.50;99.90;;;;;;5052389;28;20054;-80
2023/01/29 12:59:36;;;;;;;27.88;12.73;;;1.50;99.90;;;;;;5067969;28;20052;-80
2023/01/29 13:02:26;;;;;;;40.95;18.25;;;1.60;99.90;;;;;;5066652;28;20028;-80
2023/01/29 13:04:58;;;;;;;34.75;14.32;;;1.60;99.90;;;;;;5045925;28;20131;-79
2023/01/29 13:07:30;;;;;;;37.25;16.17;;;1.60;99.90;;;;;;5054817;28;20586;-80
2023/01/29 13:10:06;;;;;;;36.92;16.15;;;1.60;99.90;;;;;;5058595;28;20032;-80
2023/01/29 13:12:31;;;;;;;44.63;20.27;;;1.70;99.90;;;;;;5075800;28;20033;-80
2023/01/29 13:15:04;;;;;;;35.30;14.60;;;1.60;99.90;;;;;;5043300;28;20488;-80